sensor_id;sensor_type;location;lat;lon;timestamp;pressure;altitude;pressure_sealevel;temperature;humidity
51449;BME280;37520;46.570;14.268;2022-08-21T00:06:41;95555.25;;;15.95;91.04
51449;BME280;37520;46.570;14.268;2022-08-21T00:16:43;95553.94;;;15.93;91.04
51449;BME280;37520;46.570;14.268;2022-08-21T00:26:44;95546.25;;;15.86;90.33
51449;BME280;37520;46.570;14.268;2022-08-21T00:36:46;95536.19;;;15.78;89.98
51449;BME280;37520;46.570;14.268;2022-08-21T00:46:47;95535.41;;;15.72;90.57
51449;BME280;37520;46.570;14.268;2022-08-21T00:56:53;95533.31;;;15.69;92.20
51449;BME280;37520;46.570;14.268;2022-08-21T01:06:55;95528.00;;;15.64;91.30
51449;BME280;37520;46.570;14.268;2022-08-21T01:16:58;95517.63;;;15.62;90.62
51449;BME280;37520;46.570;14.268;2022-08-21T01:27:00;95522.22;;;15.57;90.76
51449;BME280;37520;46.570;14.268;2022-08-21T01:37:02;95529.94;;;15.53;91.69
51449;BME280;37520;46.570;14.268;2022-08-21T01:47:08;95521.16;;;15.53;91.92
51449;BME280;37520;46.570;14.268;2022-08-21T01:57:10;95511.31;;;15.48;93.17
51449;BME280;37520;46.570;14.268;2022-08-21T02:07:12;95514.31;;;15.41;92.82
51449;BME280;37520;46.570;14.268;2022-08-21T02:17:13;95495.97;;;15.35;91.94
51449;BME280;37520;46.570;14.268;2022-08-21T02:27:15;95485.88;;;15.31;92.20
51449;BME280;37520;46.570;14.268;2022-08-21T02:37:16;95485.38;;;15.24;92.97
51449;BME280;37520;46.570;14.268;2022-08-21T02:47:17;95483.28;;;15.21;91.70
51449;BME280;37520;46.570;14.268;2022-08-21T02:57:19;95487.31;;;15.13;92.63
51449;BME280;37520;46.570;14.268;2022-08-21T03:07:20;95488.41;;;15.02;92.24
51449;BME280;37520;46.570;14.268;2022-08-21T03:17:21;95486.34;;;14.94;95.14
51449;BME280;37520;46.570;14.268;2022-08-21T03:27:23;95470.88;;;15.01;95.47
51449;BME280;37520;46.570;14.268;2022-08-21T03:37:26;95478.06;;;15.01;95.19
51449;BME280;37520;46.570;14.268;2022-08-21T03:47:28;95489.22;;;15.03;95.63
51449;BME280;37520;46.570;14.268;2022-08-21T03:57:29;95490.81;;;15.04;94.83
51449;BME280;37520;46.570;14.268;2022-08-21T04:07:30;95488.66;;;15.06;96.07
51449;BME280;37520;46.570;14.268;2022-08-21T04:17:32;95493.75;;;15.07;97.60
51449;BME280;37520;46.570;14.268;2022-08-21T04:27:34;95488.69;;;15.01;96.63
51449;BME280;37520;46.570;14.268;2022-08-21T04:37:36;95500.66;;;15.03;95.67
51449;BME280;37520;46.570;14.268;2022-08-21T04:47:37;95508.91;;;15.07;98.61
51449;BME280;37520;46.570;14.268;2022-08-21T04:57:39;95503.78;;;15.15;96.95
51449;BME280;37520;46.570;14.268;2022-08-21T05:07:42;95512.78;;;15.30;97.06
51449;BME280;37520;46.570;14.268;2022-08-21T05:17:45;95515.56;;;15.49;96.21
51449;BME280;37520;46.570;14.268;2022-08-21T05:27:46;95512.19;;;15.73;94.35
51449;BME280;37520;46.570;14.268;2022-08-21T05:37:48;95521.72;;;15.89;92.83
51449;BME280;37520;46.570;14.268;2022-08-21T05:47:49;95527.78;;;15.95;92.89
51449;BME280;37520;46.570;14.268;2022-08-21T05:57:50;95536.03;;;15.99;92.81
51449;BME280;37520;46.570;14.268;2022-08-21T06:07:52;95526.47;;;17.43;88.17
51449;BME280;37520;46.570;14.268;2022-08-21T06:17:54;95529.53;;;18.68;75.32
51449;BME280;37520;46.570;14.268;2022-08-21T06:28:04;95523.72;;;19.45;69.03
51449;BME280;37520;46.570;14.268;2022-08-21T06:38:06;95538.97;;;19.58;71.06
51449;BME280;37520;46.570;14.268;2022-08-21T06:48:08;95533.53;;;19.49;69.83
51449;BME280;37520;46.570;14.268;2022-08-21T06:58:11;95527.94;;;19.60;69.53
51449;BME280;37520;46.570;14.268;2022-08-21T07:08:13;95530.06;;;19.86;67.38
51449;BME280;37520;46.570;14.268;2022-08-21T07:18:15;95527.69;;;20.29;65.13
51449;BME280;37520;46.570;14.268;2022-08-21T07:28:16;95527.91;;;20.42;65.20
51449;BME280;37520;46.570;14.268;2022-08-21T07:38:17;95537.09;;;20.81;64.74
51449;BME280;37520;46.570;14.268;2022-08-21T07:48:21;95537.41;;;20.80;65.55
51449;BME280;37520;46.570;14.268;2022-08-21T07:58:22;95530.78;;;20.86;65.25
51449;BME280;37520;46.570;14.268;2022-08-21T08:08:23;95528.59;;;20.88;63.89
51449;BME280;37520;46.570;14.268;2022-08-21T08:18:25;95520.44;;;21.28;62.12
51449;BME280;37520;46.570;14.268;2022-08-21T08:28:26;95516.72;;;21.82;57.62
51449;BME280;37520;46.570;14.268;2022-08-21T08:38:28;95513.00;;;22.78;56.74
51449;BME280;37520;46.570;14.268;2022-08-21T08:48:52;95517.91;;;22.84;55.85
51449;BME280;37520;46.570;14.268;2022-08-21T08:59:00;95508.19;;;22.53;57.56
51449;BME280;37520;46.570;14.268;2022-08-21T09:09:30;95511.56;;;22.33;58.90
51449;BME280;37520;46.570;14.268;2022-08-21T09:29:48;95514.47;;;22.66;59.18
51449;BME280;37520;46.570;14.268;2022-08-21T09:39:51;95487.59;;;23.60;51.86
51449;BME280;37520;46.570;14.268;2022-08-21T09:49:53;95493.34;;;23.58;48.07
51449;BME280;37520;46.570;14.268;2022-08-21T09:59:54;95493.47;;;23.62;49.40
51449;BME280;37520;46.570;14.268;2022-08-21T10:20:40;95485.19;;;23.46;50.21
51449;BME280;37520;46.570;14.268;2022-08-21T10:51:44;95473.31;;;23.80;49.05
51449;BME280;37520;46.570;14.268;2022-08-21T11:12:20;95477.44;;;23.14;51.88
51449;BME280;37520;46.570;14.268;2022-08-21T11:22:50;95458.53;;;23.23;51.07
51449;BME280;37520;46.570;14.268;2022-08-21T11:34:09;95466.44;;;23.28;49.99
51449;BME280;37520;46.570;14.268;2022-08-21T11:43:49;95459.25;;;23.32;47.71
51449;BME280;37520;46.570;14.268;2022-08-21T11:54:59;95456.41;;;23.71;50.62
51449;BME280;37520;46.570;14.268;2022-08-21T12:04:43;95444.84;;;24.17;43.15
51449;BME280;37520;46.570;14.268;2022-08-21T12:14:50;95439.19;;;24.68;43.08
51449;BME280;37520;46.570;14.268;2022-08-21T12:25:07;95428.81;;;24.70;45.20
51449;BME280;37520;46.570;14.268;2022-08-21T12:35:18;95424.09;;;24.42;44.95
51449;BME280;37520;46.570;14.268;2022-08-21T12:45:42;95420.28;;;24.68;44.32
51449;BME280;37520;46.570;14.268;2022-08-21T12:55:43;95418.00;;;24.57;42.34
51449;BME280;37520;46.570;14.268;2022-08-21T13:05:45;95408.09;;;24.49;42.79
51449;BME280;37520;46.570;14.268;2022-08-21T13:15:46;95409.22;;;24.36;41.67
51449;BME280;37520;46.570;14.268;2022-08-21T13:25:48;95402.78;;;24.53;42.17
51449;BME280;37520;46.570;14.268;2022-08-21T13:45:57;95404.59;;;24.61;44.74
51449;BME280;37520;46.570;14.268;2022-08-21T13:56:01;95411.00;;;24.44;44.71
51449;BME280;37520;46.570;14.268;2022-08-21T14:06:11;95406.78;;;24.68;42.88
51449;BME280;37520;46.570;14.268;2022-08-21T14:16:18;95394.16;;;25.25;38.69
51449;BME280;37520;46.570;14.268;2022-08-21T14:26:20;95394.78;;;24.93;42.27
51449;BME280;37520;46.570;14.268;2022-08-21T14:36:22;95388.97;;;24.79;41.57
51449;BME280;37520;46.570;14.268;2022-08-21T14:46:25;95377.28;;;25.03;40.01
51449;BME280;37520;46.570;14.268;2022-08-21T14:56:27;95367.59;;;25.15;41.84
51449;BME280;37520;46.570;14.268;2022-08-21T15:06:29;95361.81;;;24.75;39.83
51449;BME280;37520;46.570;14.268;2022-08-21T15:16:30;95343.03;;;24.42;40.84
51449;BME280;37520;46.570;14.268;2022-08-21T15:26:34;95340.56;;;24.37;42.41
51449;BME280;37520;46.570;14.268;2022-08-21T15:36:35;95330.44;;;24.09;41.20
51449;BME280;37520;46.570;14.268;2022-08-21T15:46:37;95336.31;;;23.65;43.73
51449;BME280;37520;46.570;14.268;2022-08-21T15:56:40;95333.53;;;23.28;46.01
51449;BME280;37520;46.570;14.268;2022-08-21T16:06:45;95334.81;;;23.00;44.16
51449;BME280;37520;46.570;14.268;2022-08-21T16:16:46;95327.34;;;22.85;46.28
51449;BME280;37520;46.570;14.268;2022-08-21T16:26:48;95320.03;;;22.64;46.55
51449;BME280;37520;46.570;14.268;2022-08-21T16:36:50;95329.44;;;22.58;46.24
51449;BME280;37520;46.570;14.268;2022-08-21T16:46:51;95323.78;;;22.51;48.16
51449;BME280;37520;46.570;14.268;2022-08-21T16:56:54;95326.53;;;22.33;47.12
51449;BME280;37520;46.570;14.268;2022-08-21T17:06:55;95342.06;;;22.06;48.22
51449;BME280;37520;46.570;14.268;2022-08-21T17:16:58;95350.75;;;21.65;50.55
51449;BME280;37520;46.570;14.268;2022-08-21T17:27:01;95349.97;;;21.38;54.85
51449;BME280;37520;46.570;14.268;2022-08-21T17:37:05;95360.91;;;21.06;56.45
51449;BME280;37520;46.570;14.268;2022-08-21T17:47:07;95377.97;;;20.75;56.62
51449;BME280;37520;46.570;14.268;2022-08-21T17:57:19;95382.28;;;20.45;59.88
51449;BME280;37520;46.570;14.268;2022-08-21T18:07:21;95396.41;;;20.19;61.59
51449;BME280;37520;46.570;14.268;2022-08-21T18:17:23;95405.91;;;19.85;61.78
51449;BME280;37520;46.570;14.268;2022-08-21T18:27:24;95418.19;;;19.63;62.43
51449;BME280;37520;46.570;14.268;2022-08-21T18:37:26;95432.91;;;19.43;64.07
51449;BME280;37520;46.570;14.268;2022-08-21T18:47:31;95434.34;;;19.27;64.95
51449;BME280;37520;46.570;14.268;2022-08-21T18:57:38;95425.06;;;19.10;63.70
51449;BME280;37520;46.570;14.268;2022-08-21T19:07:41;95427.16;;;18.99;65.51
51449;BME280;37520;46.570;14.268;2022-08-21T19:17:45;95433.59;;;18.84;65.95
51449;BME280;37520;46.570;14.268;2022-08-21T19:27:48;95427.69;;;18.74;67.44
51449;BME280;37520;46.570;14.268;2022-08-21T19:37:49;95434.63;;;18.61;67.34
51449;BME280;37520;46.570;14.268;2022-08-21T19:47:51;95427.41;;;18.47;68.42
51449;BME280;37520;46.570;14.268;2022-08-21T19:57:52;95426.31;;;18.34;69.02
51449;BME280;37520;46.570;14.268;2022-08-21T20:07:54;95423.25;;;18.27;68.33
51449;BME280;37520;46.570;14.268;2022-08-21T20:17:56;95427.09;;;18.21;69.23
51449;BME280;37520;46.570;14.268;2022-08-21T20:27:57;95426.81;;;18.09;68.94
51449;BME280;37520;46.570;14.268;2022-08-21T20:37:59;95417.38;;;17.97;69.30
51449;BME280;37520;46.570;14.268;2022-08-21T20:48:10;95415.03;;;17.91;69.40
51449;BME280;37520;46.570;14.268;2022-08-21T20:58:44;95422.94;;;17.82;71.57
51449;BME280;37520;46.570;14.268;2022-08-21T21:09:09;95416.28;;;17.65;69.85
51449;BME280;37520;46.570;14.268;2022-08-21T21:29:47;95414.91;;;17.35;72.77
51449;BME280;37520;46.570;14.268;2022-08-21T22:00:39;95396.75;;;16.99;74.63
51449;BME280;37520;46.570;14.268;2022-08-21T22:10:58;95391.22;;;16.90;74.94
51449;BME280;37520;46.570;14.268;2022-08-21T22:21:18;95383.84;;;16.82;75.71
51449;BME280;37520;46.570;14.268;2022-08-21T22:31:27;95378.59;;;16.76;75.04
51449;BME280;37520;46.570;14.268;2022-08-21T22:41:30;95377.66;;;16.67;75.89
51449;BME280;37520;46.570;14.268;2022-08-21T23:01:43;95380.44;;;16.57;76.18
51449;BME280;37520;46.570;14.268;2022-08-21T23:11:47;95369.91;;;16.47;77.66
51449;BME280;37520;46.570;14.268;2022-08-21T23:42:47;95362.69;;;16.28;77.59
